createdAt,value
2023-01-08T00:01:12.513Z,7.47
2023-01-08T00:03:21.099Z,8.30
2023-01-08T00:05:29.617Z,8.50
2023-01-08T00:07:41.181Z,8.33
2023-01-08T00:09:50.698Z,7.83
2023-01-08T00:11:59.167Z,8.77
2023-01-08T00:14:09.146Z,8.67
2023-01-08T00:16:18.851Z,9.40
2023-01-08T00:18:27.372Z,9.07
2023-01-08T00:20:35.845Z,8.20
2023-01-08T00:22:44.370Z,7.80
2023-01-08T00:24:52.845Z,9.17
2023-01-08T00:27:01.341Z,9.23
2023-01-08T00:29:11.301Z,7.77
2023-01-08T00:31:19.779Z,9.47
2023-01-08T00:33:28.341Z,8.77
2023-01-08T00:35:36.879Z,8.27
2023-01-08T00:37:45.347Z,9.10
2023-01-08T00:39:53.857Z,9.97
2023-01-08T00:42:02.317Z,10.80
2023-01-08T00:44:12.171Z,11.63
2023-01-08T00:46:20.808Z,10.90
2023-01-08T00:48:29.520Z,11.20
2023-01-08T00:50:38.061Z,10.83
2023-01-08T00:52:46.566Z,10.30
2023-01-08T00:54:55.153Z,6.90
2023-01-08T00:57:03.648Z,11.73
2023-01-08T00:59:13.610Z,10.83
2023-01-08T01:01:22.288Z,11.37
2023-01-08T01:03:31.019Z,10.53
2023-01-08T01:05:39.499Z,11.27
2023-01-08T01:07:48.267Z,11.50
2023-01-08T01:09:56.723Z,12.67
2023-01-08T01:12:05.311Z,12.37
2023-01-08T01:14:15.215Z,10.70
2023-01-08T01:16:24.019Z,12.63
2023-01-08T01:18:33.137Z,12.20
2023-01-08T01:20:41.572Z,12.43
2023-01-08T01:22:50.123Z,13.10
2023-01-08T01:24:59.081Z,11.10
2023-01-08T01:27:07.633Z,12.63
2023-01-08T01:29:17.521Z,12.80
2023-01-08T01:31:26.607Z,6.80
2023-01-08T01:33:35.113Z,10.60
2023-01-08T01:35:43.585Z,11.70
2023-01-08T01:37:52.010Z,10.30
2023-01-08T01:40:00.542Z,11.27
2023-01-08T01:42:29.200Z,6.93
2023-01-08T01:44:43.365Z,11.07
2023-01-08T01:46:51.958Z,8.93
2023-01-08T01:49:01.953Z,10.10
2023-01-08T01:51:10.394Z,10.27
2023-01-08T01:53:21.070Z,9.20
2023-01-08T01:55:29.841Z,9.73
2023-01-08T01:57:38.757Z,9.10
2023-01-08T01:59:49.311Z,7.63
2023-01-08T02:01:58.318Z,8.93
2023-01-08T02:04:07.692Z,8.67
2023-01-08T02:06:21.081Z,9.37
2023-01-08T02:08:35.212Z,7.93
2023-01-08T02:10:48.840Z,8.80
2023-01-08T02:12:59.665Z,7.97
2023-01-08T02:15:13.758Z,7.30
2023-01-08T02:17:25.235Z,5.77
2023-01-08T02:19:39.315Z,8.27
2023-01-08T02:21:55.528Z,8.43
2023-01-08T02:24:07.551Z,8.90
2023-01-08T02:26:19.274Z,8.33
2023-01-08T02:28:28.204Z,8.07
2023-01-08T02:30:36.908Z,8.80
2023-01-08T02:32:45.444Z,6.30
2023-01-08T02:34:54.679Z,7.97
2023-01-08T02:37:03.339Z,7.50
2023-01-08T02:39:18.095Z,9.43
2023-01-08T02:41:31.882Z,8.47
2023-01-08T02:43:43.482Z,6.97
2023-01-08T02:45:55.321Z,7.63
2023-01-08T02:48:05.829Z,7.87
2023-01-08T02:50:23.684Z,7.50
2023-01-08T02:52:33.653Z,7.83
2023-01-08T02:54:43.186Z,4.90
2023-01-08T02:56:54.722Z,8.30
2023-01-08T02:59:04.206Z,7.60
2023-01-08T03:01:13.941Z,7.30
2023-01-08T03:03:24.440Z,7.23
2023-01-08T03:05:33.115Z,7.07
2023-01-08T03:07:41.692Z,6.90
2023-01-08T03:09:50.266Z,5.83
2023-01-08T03:12:04.344Z,5.47
2023-01-08T03:14:13.962Z,6.20
2023-01-08T03:16:24.991Z,6.33
2023-01-08T03:18:35.280Z,5.77
2023-01-08T03:20:44.560Z,7.03
2023-01-08T03:22:54.822Z,4.87
2023-01-08T03:25:04.256Z,5.50
2023-01-08T03:27:16.971Z,5.53
2023-01-08T03:29:26.037Z,5.73
2023-01-08T03:31:36.002Z,5.67
2023-01-08T03:33:45.561Z,5.10
2023-01-08T03:35:55.666Z,5.27
2023-01-08T03:38:06.603Z,4.67
2023-01-08T03:40:18.903Z,4.53
2023-01-08T03:42:30.167Z,3.87
2023-01-08T03:44:38.811Z,4.67
2023-01-08T03:46:49.857Z,4.43
2023-01-08T03:48:58.829Z,4.83
2023-01-08T03:51:10.036Z,5.10
2023-01-08T03:53:18.540Z,4.07
2023-01-08T03:55:27.038Z,3.00
2023-01-08T03:57:37.408Z,3.40
2023-01-08T03:59:45.927Z,3.37
2023-01-08T04:01:54.511Z,3.73
2023-01-08T04:04:03.159Z,3.93
2023-01-08T04:06:11.718Z,3.30
2023-01-08T04:08:20.149Z,3.10
2023-01-08T04:10:28.685Z,3.60
2023-01-08T04:12:38.781Z,3.63
2023-01-08T04:14:47.329Z,3.33
2023-01-08T04:16:55.888Z,3.57
2023-01-08T04:19:04.463Z,3.73
2023-01-08T04:21:12.917Z,3.43
2023-01-08T04:23:21.430Z,3.60
2023-01-08T04:25:29.893Z,3.10
2023-01-08T04:27:39.825Z,3.10
2023-01-08T04:29:48.359Z,2.70
2023-01-08T04:31:56.854Z,3.30
2023-01-08T04:34:06.165Z,2.80
2023-01-08T04:36:14.838Z,3.03
2023-01-08T04:38:23.295Z,3.07
2023-01-08T04:40:31.970Z,3.03
2023-01-08T04:42:41.853Z,3.43
2023-01-08T04:44:50.667Z,2.80
2023-01-08T04:46:59.128Z,2.80
2023-01-08T04:49:07.638Z,3.60
2023-01-08T04:51:16.314Z,2.53
2023-01-08T04:53:24.812Z,3.60
2023-01-08T04:55:33.411Z,2.97
2023-01-08T04:57:43.482Z,3.10
2023-01-08T04:59:51.995Z,3.57
2023-01-08T05:02:01.066Z,2.80
2023-01-08T05:04:09.612Z,3.00
2023-01-08T05:06:18.236Z,2.40
2023-01-08T05:08:26.855Z,2.90
2023-01-08T05:10:35.297Z,2.93
2023-01-08T05:12:45.167Z,2.77
2023-01-08T05:14:53.613Z,3.33
2023-01-08T05:17:02.125Z,3.03
2023-01-08T05:19:10.605Z,2.80
2023-01-08T05:21:19.075Z,2.43
2023-01-08T05:23:27.573Z,3.23
2023-01-08T05:25:36.729Z,2.57
2023-01-08T05:27:46.616Z,2.33
2023-01-08T05:29:55.079Z,3.20
2023-01-08T05:32:03.588Z,2.60
2023-01-08T05:34:12.021Z,2.70
2023-01-08T05:36:20.655Z,2.43
2023-01-08T05:38:29.106Z,2.63
2023-01-08T05:40:37.559Z,2.40
2023-01-08T05:42:47.396Z,3.00
2023-01-08T05:44:56.091Z,2.90
2023-01-08T05:47:04.488Z,2.20
2023-01-08T05:49:13.012Z,2.20
2023-01-08T05:51:21.515Z,2.03
2023-01-08T05:53:32.050Z,2.67
2023-01-08T05:55:40.557Z,2.20
2023-01-08T05:57:50.791Z,2.40
2023-01-08T05:59:59.263Z,2.00
2023-01-08T06:02:07.804Z,2.13
2023-01-08T06:04:16.306Z,2.37
2023-01-08T06:06:24.819Z,1.90
2023-01-08T06:08:33.552Z,1.53
2023-01-08T06:10:42.015Z,2.27
2023-01-08T06:12:51.899Z,1.90
2023-01-08T06:15:00.372Z,2.30
2023-01-08T06:17:08.896Z,1.80
2023-01-08T06:19:19.033Z,2.50
2023-01-08T06:21:27.555Z,1.90
2023-01-08T06:23:36.023Z,2.13
2023-01-08T06:25:44.567Z,1.87
2023-01-08T06:27:55.025Z,2.37
2023-01-08T06:30:03.466Z,2.50
2023-01-08T06:32:11.970Z,2.27
2023-01-08T06:34:20.418Z,2.27
2023-01-08T06:36:28.984Z,2.20
2023-01-08T06:38:37.667Z,2.37
2023-01-08T06:40:46.168Z,2.13
2023-01-08T06:42:56.077Z,2.00
2023-01-08T06:45:04.494Z,2.00
2023-01-08T06:47:13.054Z,2.03
2023-01-08T06:49:22.239Z,2.37
2023-01-08T06:51:30.742Z,2.33
2023-01-08T06:53:39.249Z,2.27
2023-01-08T06:55:47.750Z,2.70
2023-01-08T06:57:58.318Z,1.90
2023-01-08T07:00:07.519Z,1.63
2023-01-08T07:02:16.868Z,2.43
2023-01-08T07:04:25.467Z,2.33
2023-01-08T07:06:33.986Z,2.03
2023-01-08T07:08:42.399Z,2.17
2023-01-08T07:10:51.207Z,2.40
2023-01-08T07:13:01.123Z,1.80
2023-01-08T07:15:10.120Z,2.27
2023-01-08T07:17:18.599Z,1.77
2023-01-08T07:19:27.108Z,2.03
2023-01-08T07:21:35.617Z,1.63
2023-01-08T07:23:45.606Z,3.03
2023-01-08T07:25:54.064Z,1.93
2023-01-08T07:28:03.973Z,1.87
2023-01-08T07:30:28.399Z,2.00
2023-01-08T07:32:38.065Z,1.97
2023-01-08T07:34:46.588Z,1.77
2023-01-08T07:36:55.034Z,2.13
2023-01-08T07:39:03.733Z,1.93
2023-01-08T07:41:13.336Z,2.47
2023-01-08T07:43:23.357Z,2.20
2023-01-08T07:45:32.351Z,2.40
2023-01-08T07:47:40.863Z,2.00
2023-01-08T07:49:49.383Z,2.50
2023-01-08T07:51:57.858Z,2.47
2023-01-08T07:54:06.522Z,1.80
2023-01-08T07:56:15.031Z,2.70
2023-01-08T07:58:24.984Z,2.40
2023-01-08T08:00:33.511Z,2.80
2023-01-08T08:02:42.050Z,2.50
2023-01-08T08:04:50.623Z,2.90
2023-01-08T08:06:59.258Z,3.00
2023-01-08T08:09:07.825Z,2.90
2023-01-08T08:11:16.339Z,2.93
2023-01-08T08:13:26.172Z,3.13
2023-01-08T08:15:34.864Z,2.80
2023-01-08T08:17:46.328Z,3.10
2023-01-08T08:19:54.863Z,3.43
2023-01-08T08:22:03.270Z,3.43
2023-01-08T08:24:11.846Z,3.10
2023-01-08T08:26:20.270Z,3.77
2023-01-08T08:28:30.133Z,3.40
2023-01-08T08:30:40.638Z,3.77
2023-01-08T08:32:50.733Z,3.80
2023-01-08T08:34:59.241Z,4.43
2023-01-08T08:37:07.753Z,4.80
2023-01-08T08:39:16.196Z,4.13
2023-01-08T08:41:24.692Z,5.60
2023-01-08T08:43:34.683Z,4.97
2023-01-08T08:45:43.219Z,4.10
2023-01-08T08:47:51.674Z,4.27
2023-01-08T08:50:00.180Z,4.47
2023-01-08T08:52:08.615Z,4.87
2023-01-08T08:54:17.065Z,5.30
2023-01-08T08:56:25.506Z,4.20
2023-01-08T08:58:35.423Z,4.50
2023-01-08T09:00:44.440Z,4.60
2023-01-08T09:02:53.075Z,3.10
2023-01-08T09:05:01.596Z,4.33
2023-01-08T09:07:10.075Z,4.60
2023-01-08T09:09:18.687Z,3.27
2023-01-08T09:11:27.161Z,3.50
2023-01-08T09:13:38.106Z,3.40
2023-01-08T09:15:46.592Z,3.20
2023-01-08T09:17:55.732Z,2.47
2023-01-08T09:20:04.221Z,3.00
2023-01-08T09:22:12.844Z,3.80
2023-01-08T09:24:21.362Z,4.00
2023-01-08T09:26:30.408Z,3.63
2023-01-08T09:28:40.273Z,4.60
2023-01-08T09:30:48.694Z,4.13
2023-01-08T09:33:02.297Z,5.13
2023-01-08T09:35:11.737Z,4.83
2023-01-08T09:37:20.248Z,5.73
2023-01-08T09:39:29.083Z,5.63
2023-01-08T09:41:38.799Z,6.33
2023-01-08T09:43:50.259Z,7.03
2023-01-08T09:46:00.355Z,8.83
2023-01-08T09:48:09.616Z,8.77
2023-01-08T09:50:30.547Z,9.73
2023-01-08T09:52:42.108Z,11.43
2023-01-08T09:54:52.002Z,11.50
2023-01-08T09:57:01.079Z,12.83
2023-01-08T09:59:14.643Z,12.87
2023-01-08T10:01:24.768Z,13.90
2023-01-08T10:03:36.876Z,13.23
2023-01-08T10:05:45.656Z,15.50
2023-01-08T10:07:54.251Z,15.37
2023-01-08T10:10:02.928Z,14.43
2023-01-08T10:12:13.380Z,17.20
2023-01-08T10:14:25.300Z,16.37
2023-01-08T10:16:38.024Z,17.40
2023-01-08T10:18:46.542Z,17.57
2023-01-08T10:20:54.977Z,18.17
2023-01-08T10:23:10.661Z,19.17
2023-01-08T10:25:19.920Z,21.93
2023-01-08T10:27:28.573Z,20.40
2023-01-08T10:29:39.858Z,22.77
2023-01-08T10:31:49.676Z,19.53
2023-01-08T10:33:58.141Z,21.63
2023-01-08T10:36:09.194Z,32.53
2023-01-08T10:38:26.104Z,22.30
2023-01-08T10:40:38.549Z,20.83
2023-01-08T10:42:47.782Z,22.23
2023-01-08T10:45:02.048Z,18.97
2023-01-08T10:47:16.480Z,23.43
2023-01-08T10:49:29.138Z,20.30
2023-01-08T10:51:37.729Z,23.07
2023-01-08T10:53:46.437Z,21.70
2023-01-08T10:56:01.232Z,21.67
2023-01-08T10:58:15.763Z,21.87
2023-01-08T11:00:27.018Z,21.83
2023-01-08T11:02:38.679Z,24.73
2023-01-08T11:04:52.427Z,21.10
2023-01-08T11:07:02.092Z,20.87
2023-01-08T11:09:18.012Z,22.67
2023-01-08T11:11:26.748Z,21.17
2023-01-08T11:13:35.283Z,23.70
2023-01-08T11:15:45.824Z,22.77
2023-01-08T11:17:54.410Z,22.20
2023-01-08T11:20:10.463Z,23.40
2023-01-08T11:22:20.361Z,21.77
2023-01-08T11:24:30.263Z,21.33
2023-01-08T11:26:39.140Z,24.03
2023-01-08T11:28:51.045Z,24.07
2023-01-08T11:31:04.977Z,17.30
2023-01-08T11:33:16.847Z,24.70
2023-01-08T11:35:28.545Z,20.27
2023-01-08T11:37:39.314Z,21.97
2023-01-08T11:39:47.899Z,27.30
2023-01-08T11:42:05.296Z,22.33
2023-01-08T11:44:20.357Z,25.30
2023-01-08T11:46:34.576Z,24.23
2023-01-08T11:48:51.228Z,26.37
2023-01-08T11:51:06.786Z,23.70
2023-01-08T11:53:21.332Z,25.40
2023-01-08T11:55:40.794Z,26.33
2023-01-08T11:57:58.667Z,25.97
2023-01-08T12:00:14.922Z,25.63
2023-01-08T12:02:35.787Z,26.13
2023-01-08T12:04:53.699Z,25.97
2023-01-08T12:07:08.103Z,26.70
2023-01-08T12:09:20.729Z,25.03
2023-01-08T12:11:30.933Z,22.97
2023-01-08T12:13:45.519Z,13.10
2023-01-08T12:16:03.885Z,26.23
2023-01-08T12:18:36.376Z,23.50
2023-01-08T12:20:50.257Z,24.97
2023-01-08T12:23:02.217Z,26.73
2023-01-08T12:25:40.699Z,26.00
2023-01-08T12:27:57.535Z,25.30
2023-01-08T12:30:11.385Z,26.13
2023-01-08T12:32:24.270Z,27.63
2023-01-08T12:34:38.821Z,27.20
2023-01-08T12:36:50.096Z,26.37
2023-01-08T12:39:02.457Z,27.33
2023-01-08T12:41:12.856Z,28.10
2023-01-08T12:43:22.267Z,25.80
2023-01-08T12:45:32.294Z,26.37
2023-01-08T12:47:42.369Z,24.67
2023-01-08T12:49:53.053Z,25.87
2023-01-08T12:52:05.027Z,25.00
2023-01-08T12:54:16.874Z,28.90
2023-01-08T12:56:31.871Z,25.27
2023-01-08T12:58:55.809Z,24.07
2023-01-08T13:01:10.041Z,23.87
2023-01-08T13:03:21.786Z,26.97
2023-01-08T13:05:32.537Z,33.40
2023-01-08T13:07:44.709Z,30.50
2023-01-08T13:09:57.012Z,27.53
2023-01-08T13:12:05.675Z,24.77
2023-01-08T13:14:14.919Z,24.83
2023-01-08T13:16:24.516Z,24.80
2023-01-08T13:18:33.209Z,27.23
2023-01-08T13:20:41.830Z,28.27
2023-01-08T13:22:55.370Z,27.77
2023-01-08T13:25:11.035Z,27.70
2023-01-08T13:27:30.504Z,27.80
2023-01-08T13:32:34.678Z,16.40
2023-01-08T13:34:43.280Z,26.77
2023-01-08T13:36:58.655Z,33.67
2023-01-08T13:39:23.330Z,25.03
2023-01-08T13:41:32.751Z,27.57
2023-01-08T13:43:42.132Z,29.43
2023-01-08T13:45:56.234Z,27.47
2023-01-08T13:48:04.973Z,28.03
2023-01-08T13:50:18.221Z,27.57
2023-01-08T13:52:34.517Z,34.27
2023-01-08T13:54:45.249Z,28.63
2023-01-08T13:56:55.603Z,28.40
2023-01-08T13:59:05.519Z,29.07
2023-01-08T14:01:14.515Z,28.30
2023-01-08T14:03:23.973Z,27.03
2023-01-08T14:05:34.716Z,28.70
2023-01-08T14:07:44.446Z,27.30
2023-01-08T14:09:54.671Z,28.50
2023-01-08T14:12:04.637Z,27.73
2023-01-08T14:14:14.476Z,30.27
2023-01-08T14:16:23.015Z,30.30
2023-01-08T14:18:31.581Z,27.27
2023-01-08T14:20:41.105Z,27.03
2023-01-08T14:22:49.584Z,27.23
2023-01-08T14:25:00.156Z,27.87
2023-01-08T14:27:20.703Z,22.13
2023-01-08T14:29:30.826Z,28.77
2023-01-08T14:31:39.493Z,28.73
2023-01-08T14:33:48.986Z,28.47
2023-01-08T14:35:57.969Z,27.03
2023-01-08T14:38:06.648Z,28.60
2023-01-08T14:40:17.154Z,27.73
2023-01-08T14:42:50.122Z,28.97
2023-01-08T14:44:59.265Z,28.70
2023-01-08T14:47:08.378Z,28.57
2023-01-08T14:49:21.259Z,28.00
2023-01-08T14:51:30.933Z,27.90
2023-01-08T14:53:41.064Z,28.47
2023-01-08T14:55:52.092Z,28.50
2023-01-08T14:58:00.556Z,26.10
2023-01-08T15:00:16.831Z,27.17
2023-01-08T15:02:29.199Z,27.50
2023-01-08T15:04:37.882Z,27.63
2023-01-08T15:06:46.644Z,26.47
2023-01-08T15:08:55.291Z,26.17
2023-01-08T15:11:06.713Z,27.07
2023-01-08T15:13:23.857Z,27.17
2023-01-08T15:15:33.787Z,27.00
2023-01-08T15:17:42.357Z,25.53
2023-01-08T15:19:52.880Z,27.47
2023-01-08T15:22:02.348Z,25.93
2023-01-08T15:24:21.094Z,24.37
2023-01-08T15:26:31.055Z,25.43
2023-01-08T15:28:39.715Z,24.87
2023-01-08T15:30:48.425Z,25.33
2023-01-08T15:33:07.396Z,26.90
2023-01-08T15:35:16.723Z,25.60
2023-01-08T15:37:25.157Z,23.23
2023-01-08T15:39:33.742Z,22.47
2023-01-08T15:42:01.444Z,23.53
2023-01-08T15:44:10.490Z,24.67
2023-01-08T15:46:18.920Z,22.53
2023-01-08T15:48:27.349Z,23.33
2023-01-08T15:50:38.949Z,21.57
2023-01-08T15:52:47.418Z,18.93
2023-01-08T15:54:55.840Z,19.93
2023-01-08T15:57:05.732Z,20.27
2023-01-08T15:59:14.184Z,18.63
2023-01-08T16:01:22.712Z,19.30
2023-01-08T16:03:31.526Z,18.13
2023-01-08T16:05:40.037Z,16.03
2023-01-08T16:07:48.981Z,19.47
2023-01-08T16:09:57.510Z,18.80
2023-01-08T16:12:07.978Z,18.83
2023-01-08T16:14:16.619Z,20.20
2023-01-08T16:16:25.085Z,20.03
2023-01-08T16:18:33.598Z,15.37
2023-01-08T16:20:42.137Z,23.43
2023-01-08T16:22:50.617Z,21.80
2023-01-08T16:24:59.092Z,21.80
2023-01-08T16:27:10.037Z,23.17
2023-01-08T16:29:18.524Z,18.77
2023-01-08T16:31:26.967Z,19.40
2023-01-08T16:33:35.653Z,19.40
2023-01-08T16:35:44.182Z,15.50
2023-01-08T16:37:52.853Z,17.60
2023-01-08T16:40:01.420Z,18.80
2023-01-08T16:42:12.077Z,18.97
2023-01-08T16:44:20.996Z,18.53
2023-01-08T16:46:29.899Z,19.57
2023-01-08T16:48:38.389Z,18.93
2023-01-08T16:50:46.965Z,20.37
2023-01-08T16:52:55.518Z,22.73
2023-01-08T16:55:05.958Z,23.63
2023-01-08T16:57:15.884Z,23.03
2023-01-08T16:59:26.713Z,22.40
2023-01-08T17:01:35.240Z,22.77
2023-01-08T17:03:43.732Z,23.30
2023-01-08T17:05:52.390Z,22.67
2023-01-08T17:08:00.807Z,23.53
2023-01-08T17:10:10.092Z,22.57
2023-01-08T17:12:22.528Z,23.80
2023-01-08T17:14:31.295Z,23.90
2023-01-08T17:16:41.540Z,19.93
2023-01-08T17:18:50.071Z,23.60
2023-01-08T17:20:58.524Z,22.97
2023-01-08T17:23:06.985Z,21.13
2023-01-08T17:25:15.455Z,23.40
2023-01-08T17:27:25.376Z,24.17
2023-01-08T17:29:33.781Z,25.50
2023-01-08T17:31:42.248Z,18.77
2023-01-08T17:33:51.474Z,23.47
2023-01-08T17:36:00.169Z,24.40
2023-01-08T17:38:08.653Z,24.80
2023-01-08T17:40:17.289Z,23.30
2023-01-08T17:42:26.901Z,25.50
2023-01-08T17:44:35.447Z,26.27
2023-01-08T17:46:45.320Z,24.17
2023-01-08T17:48:53.894Z,24.27
2023-01-08T17:51:02.693Z,26.63
2023-01-08T17:53:11.258Z,22.97
2023-01-08T17:55:19.909Z,25.37
2023-01-08T17:57:31.609Z,25.83
2023-01-08T17:59:40.133Z,35.83
2023-01-08T18:01:48.801Z,26.40
2023-01-08T18:03:57.331Z,25.57
2023-01-08T18:06:08.957Z,23.63
2023-01-08T18:08:17.497Z,21.60
2023-01-08T18:10:25.987Z,21.37
2023-01-08T18:12:35.763Z,21.90
2023-01-08T18:14:44.261Z,21.00
2023-01-08T18:16:53.968Z,21.30
2023-01-08T18:19:02.573Z,19.77
2023-01-08T18:21:11.286Z,20.13
2023-01-08T18:23:19.674Z,19.97
2023-01-08T18:25:28.152Z,20.63
2023-01-08T18:27:38.041Z,19.70
2023-01-08T18:29:46.524Z,20.73
2023-01-08T18:31:55.178Z,20.60
2023-01-08T18:34:04.487Z,18.90
2023-01-08T18:36:13.667Z,18.40
2023-01-08T18:38:23.264Z,19.00
2023-01-08T18:40:31.835Z,17.63
2023-01-08T18:42:41.694Z,14.47
2023-01-08T18:44:52.615Z,17.70
2023-01-08T18:47:01.119Z,16.43
2023-01-08T18:49:09.712Z,12.40
2023-01-08T18:51:18.214Z,13.53
2023-01-08T18:53:27.840Z,14.63
2023-01-08T18:55:36.441Z,9.77
2023-01-08T18:57:47.355Z,13.73
2023-01-08T18:59:55.947Z,13.47
2023-01-08T19:02:04.531Z,14.03
2023-01-08T19:04:16.919Z,13.13
2023-01-08T19:06:25.703Z,11.67
2023-01-08T19:08:34.197Z,10.63
2023-01-08T19:10:42.653Z,11.20
2023-01-08T19:12:52.630Z,8.03
2023-01-08T19:15:01.130Z,9.83
2023-01-08T19:17:09.609Z,10.30
2023-01-08T19:19:18.455Z,9.83
2023-01-08T19:21:27.531Z,9.57
2023-01-08T19:23:36.189Z,10.57
2023-01-08T19:25:44.756Z,9.53
2023-01-08T19:27:54.594Z,8.93
2023-01-08T19:30:03.152Z,8.27
2023-01-08T19:32:11.619Z,9.43
2023-01-08T19:34:20.526Z,9.17
2023-01-08T19:36:29.375Z,9.53
2023-01-08T19:38:37.907Z,9.83
2023-01-08T19:40:46.322Z,9.13
2023-01-08T19:43:14.108Z,9.90
2023-01-08T19:45:22.511Z,9.40
2023-01-08T19:47:30.980Z,9.67
2023-01-08T19:49:41.531Z,8.93
2023-01-08T19:51:51.028Z,9.33
2023-01-08T19:54:00.950Z,9.57
2023-01-08T19:56:10.410Z,10.07
2023-01-08T19:58:21.263Z,9.97
2023-01-08T20:00:30.616Z,8.90
2023-01-08T20:02:39.318Z,9.47
2023-01-08T20:04:47.887Z,8.87
2023-01-08T20:06:57.896Z,9.27
2023-01-08T20:09:08.911Z,9.30
2023-01-08T20:11:18.692Z,9.70
2023-01-08T20:13:28.699Z,9.63
2023-01-08T20:15:37.154Z,8.60
2023-01-08T20:17:45.607Z,9.23
2023-01-08T20:19:54.088Z,6.93
2023-01-08T20:22:03.091Z,7.07
2023-01-08T20:24:14.134Z,9.37
2023-01-08T20:26:23.049Z,8.67
2023-01-08T20:28:32.853Z,8.20
2023-01-08T20:30:41.284Z,8.93
2023-01-08T20:35:04.881Z,9.40
2023-01-08T20:37:13.340Z,9.67
2023-01-08T20:39:22.151Z,10.87
2023-01-08T20:41:30.840Z,9.70
2023-01-08T20:43:41.592Z,10.80
2023-01-08T20:45:50.661Z,10.50
2023-01-08T20:47:59.242Z,11.23
2023-01-08T20:50:19.236Z,11.27
2023-01-08T20:52:30.727Z,9.43
2023-01-08T20:54:39.288Z,10.30
2023-01-08T20:56:48.024Z,10.73
2023-01-08T20:58:58.676Z,11.43
2023-01-08T21:01:08.426Z,10.40
2023-01-08T21:03:17.045Z,8.40
2023-01-08T21:05:26.448Z,8.23
2023-01-08T21:07:35.369Z,7.83
2023-01-08T21:09:44.349Z,8.73
2023-01-08T21:11:52.787Z,9.40
2023-01-08T21:14:03.071Z,9.40
2023-01-08T21:16:13.010Z,8.73
2023-01-08T21:18:23.258Z,4.97
2023-01-08T21:20:31.680Z,8.57
2023-01-08T21:22:40.243Z,9.20
2023-01-08T21:24:48.709Z,8.87
2023-01-08T21:26:57.214Z,9.17
2023-01-08T21:29:07.512Z,8.40
2023-01-08T21:31:17.138Z,8.07
2023-01-08T21:33:25.612Z,7.80
2023-01-08T21:35:35.070Z,6.93
2023-01-08T21:37:43.463Z,6.93
2023-01-08T21:39:51.920Z,7.17
2023-01-08T21:42:18.203Z,6.03
2023-01-08T21:44:45.809Z,6.23
2023-01-08T21:46:54.225Z,6.57
2023-01-08T21:49:02.698Z,6.47
2023-01-08T21:51:25.427Z,6.97
2023-01-08T21:53:36.203Z,7.13
2023-01-08T21:55:44.952Z,6.17
2023-01-08T21:57:54.192Z,7.33
2023-01-08T22:00:04.580Z,7.20
2023-01-08T22:02:16.207Z,6.87
2023-01-08T22:04:24.662Z,6.13
2023-01-08T22:06:33.114Z,7.70
2023-01-08T22:08:41.620Z,6.30
2023-01-08T22:10:50.113Z,7.03
2023-01-08T22:12:59.258Z,6.50
2023-01-08T22:15:10.786Z,6.00
2023-01-08T22:17:19.257Z,5.13
2023-01-08T22:19:27.823Z,5.97
2023-01-08T22:21:36.359Z,5.70
2023-01-08T22:23:44.965Z,5.37
2023-01-08T22:25:53.385Z,5.23
2023-01-08T22:28:01.855Z,4.80
2023-01-08T22:30:12.748Z,5.23
2023-01-08T22:32:21.239Z,4.37
2023-01-08T22:34:32.270Z,4.87
2023-01-08T22:36:41.439Z,5.13
2023-01-08T22:38:49.829Z,4.37
2023-01-08T22:40:58.654Z,4.50
2023-01-08T22:43:07.406Z,4.37
2023-01-08T22:45:17.523Z,3.87
2023-01-08T22:47:25.935Z,4.47
2023-01-08T22:49:34.537Z,4.63
2023-01-08T22:51:43.544Z,3.97
2023-01-08T22:53:52.524Z,3.80
2023-01-08T22:56:00.994Z,3.77
2023-01-08T22:58:09.737Z,4.40
2023-01-08T23:00:21.405Z,3.70
2023-01-08T23:02:30.109Z,3.57
2023-01-08T23:04:38.569Z,3.90
2023-01-08T23:06:47.925Z,3.53
2023-01-08T23:08:57.041Z,3.00
2023-01-08T23:11:05.608Z,2.73
2023-01-08T23:13:14.054Z,2.93
2023-01-08T23:15:24.194Z,2.97
2023-01-08T23:17:38.995Z,3.03
2023-01-08T23:19:52.981Z,2.97
2023-01-08T23:22:01.555Z,3.40
2023-01-08T23:24:13.246Z,2.97
2023-01-08T23:26:22.613Z,3.30
2023-01-08T23:28:31.532Z,3.17
2023-01-08T23:30:43.320Z,3.07
2023-01-08T23:32:51.945Z,3.10
2023-01-08T23:35:00.446Z,3.73
2023-01-08T23:37:09.250Z,3.40
2023-01-08T23:39:17.808Z,3.23
2023-01-08T23:41:33.791Z,3.07
2023-01-08T23:43:43.675Z,2.53
2023-01-08T23:45:55.759Z,2.40
2023-01-08T23:48:04.369Z,3.37
2023-01-08T23:50:13.155Z,3.17
2023-01-08T23:52:21.736Z,2.97
2023-01-08T23:54:30.291Z,3.27
2023-01-08T23:56:39.254Z,2.97
2023-01-08T23:58:48.075Z,3.10
